Main page


Airports :

Lahore, Pakistan

Allama Iqbal International Airport

latitude: 31-31N, longitude: 074-24E, elevation: 216 m

Current weather observation

The report was made 28 minutes ago, at 22:30 UTC
Wind 3 kt from the West/Northwest
Temperature 18°C
Humidity 73%
Pressure 1010 hPa
Visibility: 4000 m

METAR: OPLA 222230Z 29003KT 4000 FU NSC 18/13 Q1010 A29.84

Time: 03:58 (22:58 UTC)


The report was made 7 hours and 13 minutes ago, at 15:45 UTC
Forecast valid from 22 at 18 UTC to 23 at 12 UTC
Wind 5 kt from the North
Visibility: 4000 m
from 23 at 01 UTC to 23 at 05 UTC
Wind 2 kt from variable directions
Visibility: 1500 m
From 23 at 0800 UTC
Wind 6 kt from the North/Northwest
Visibility: 6000 m

TAF: OPLA 221545Z 2218/2312 36005KT 4000 FU NSC TX28/2310Z TN14/2301Z TEMPO 2301/2305 VRB02KT 1500 BR FM230800 33006KT 6000

Weather observations and forecasts of more than 4000 airports (METAR and TAF reports).

The available stations are represented by yellow and red dots on the map.

Hover mouse over dot to see the name of the station.

Then click to see weather observations and forecasts.

To change the map : click on the green buttons with a black cross to zoom in, on the green button with a dash to zoom out, or on the green arrows for adjacent maps.